NowCast ZoneCast Warnings/Advisories Hourly Track Special Radar
Punta Gorda, Charlotte County Airport, United States  Lat: 26.92N, Lon: 81.99W
ICAO Used: KPGD
Current Conditions
Updated: 2:53 PM EST MON SEP 1 2014
Sun & Moon Information:
Partly Cloudy
Partly Cloudy
Temp: 93°F
Humidity: 50%
Wind Speed: E9.2MPH(8KT)
Barometer: 30.04 in.
Dewpoint: 72°F
Heat Index: 101°F
Wind Chill: 93°F
Civil Twilight: 5:42 AM EST Moon Phase:
Waxing Gibbous Moon
Waxing Gibbous Moon
Sunrise: 6:06 AM EST
Sunset: 6:48 PM EST
Civil Twilight: 7:12 PM EST
Forecast for Punta Gorda, Charlotte County Airport, FL, United States:
(Forecast based on TAF for )
0800 PM EST SUN AUG 31 2014
  
OVERNIGHT MORNING AFTERNOON EVENING OVERNIGHT
Mostly Cloudy Partly Cloudy Partly Cloudy Partly Cloudy Partly Cloudy
Mostly
Cloudy
Partly
Cloudy
Partly
Cloudy
Partly
Cloudy
Partly
Cloudy
TAF based forecast:
Dated: 0800 PM EST SUN AUG 31 2014
Overnight...Turning mostly cloudy with winds from the east at 3 mph.
Morning...Mostly cloudy with winds from the east at 3 mph. Turning partly cloudy with winds from the east at 7 mph.
Afternoon...Partly cloudy with winds from the east at 7 mph.
Evening...Partly cloudy with winds from the east at 7 mph.
Overnight...Partly cloudy with winds from the east at 7 mph.
Original Encoded TAF:
Dated: 0800 PM EST SUN AUG 31 2014
KPGD 011741Z 0118/0218 11007KT P6SM VCTS SCT035CB BKN250 
     FM020100 09003KT P6SM FEW030 BKN250 
     FM021400 09006KT P6SM FEW030 SCT250